Flight Track Log - Related Links

Times and Time Zones

All times are in EDT time to prevent confusion due to time zone crossing. See the EJA641 flight status page for this flight to view local times or setup timezone preferences in your user account.


Time Position Orientation Groundspeed Altitude Reporting Facility
EDT Latitude Longitude Course Direction KTS MPH feet Rate Location/Type
Sat 03:00:10 PM 38.3275 -75.4911 231° Southwest 207 238 1,400  Level Washington Center
Sat 03:01:17 PM 38.2919 -75.5467 231° Southwest 233 268 4,400 2,317 Climbing Washington Center
Sat 03:02:35 PM 38.2900 -75.6683 269° West 266 306 7,000 2,115 Climbing Washington Center
Sat 03:03:36 PM 38.2897 -75.7558 270° West 279 321 9,300 2,579 Climbing Washington Center
Sat 03:04:36 PM 38.2897 -75.8536 270° West 279 321 12,200 2,628 Climbing Washington Center
Sat 03:05:37 PM 38.2872 -75.9542 268° West 279 321 14,600 2,067 Climbing Washington Center
Sat 03:06:35 PM 38.2889 -76.0678 271° West 302 348 16,300 1,729 Climbing Washington Center
Sat 03:07:35 PM 38.2883 -76.1869 270° West 319 367 18,000 1,835 Climbing Washington Center
Sat 03:08:36 PM 38.2858 -76.3058 269° West 333 383 20,000 1,967 Climbing Washington Center
Sat 03:09:37 PM 38.2747 -76.4194 263° West 338 389 22,000 1,488 Climbing Washington Center
Sat 03:10:37 PM 38.2258 -76.5194 238° Southwest 321 369 23,000 950 Climbing Washington Center
Sat 03:11:37 PM 38.1731 -76.6192 236° Southwest 326 375 23,900 1,220 Climbing Washington Center
Sat 03:12:35 PM 38.1200 -76.7189 236° Southwest 338 389 25,400 1,059 Climbing Washington Center
Sat 03:13:36 PM 38.0669 -76.8181 236° Southwest 348 400 26,000 295 Climbing Washington Center
Sat 03:14:37 PM 38.0136 -76.9200 236° Southwest 348 400 26,000  Level Washington Center
Sat 03:15:35 PM 37.9644 -77.0167 237° Southwest 348 400 26,000  Level Washington Center
Sat 03:16:35 PM 37.9092 -77.1208 236° Southwest 337 388 26,000  Level Washington Center
Sat 03:17:36 PM 37.8600 -77.2119 236° Southwest 330 380 26,000 -298 Level Washington Center
Sat 03:18:36 PM 37.8106 -77.3031 236° Southwest 325 374 25,400 -1,000 Descending Washington Center
Sat 03:19:36 PM 37.7550 -77.4067 236° Southwest 338 389 24,000 -787 Descending Washington Center
Sat 03:20:38 PM 37.7033 -77.5053 237° Southwest 343 395 23,800 -800 Descending Washington Center
Sat 03:21:36 PM 37.6494 -77.6036 235° Southwest 343 395 22,400 -1,068 Descending Washington Center
Sat 03:22:36 PM 37.5956 -77.7069 237° Southwest 343 395 21,700 -1,091 Descending Washington Center
Sat 03:23:37 PM 37.5397 -77.8075 235° Southwest 349 402 20,200 -843 Descending Washington Center
Sat 03:24:37 PM 37.5392 -77.9358 270° West 343 395 20,000 -102 Descending Washington Center
Sat 03:25:35 PM 37.5578 -78.0517 281° West 338 389 20,000  Level Washington Center
Sat 03:26:35 PM 37.5742 -78.1675 280° West 338 389 20,000  Level Washington Center
Sat 03:27:36 PM 37.5944 -78.2861 282° West 343 395 20,000  Level Washington Center
Sat 03:28:36 PM 37.6106 -78.4022 280° West 343 395 20,000  Level Washington Center
Sat 03:29:37 PM 37.6267 -78.5208 280° West 338 389 20,000  Level Washington Center
Sat 03:30:35 PM 37.6386 -78.6208 279° West 333 383 20,000 -51 Level Washington Center
Sat 03:31:35 PM 37.6544 -78.7369 280° West 333 383 19,900 -793 Descending Washington Center
Sat 03:32:36 PM 37.6700 -78.8583 279° West 338 389 18,400 -1,426 Descending Washington Center
Sat 03:33:37 PM 37.6836 -78.9664 279° West 333 383 17,000 -1,210 Descending Washington Center
Sat 03:34:35 PM 37.6992 -79.0825 280° West 317 365 16,000 -508 Descending Washington Center
Sat 03:35:35 PM 37.7128 -79.1856 280° West 311 358 16,000 50 Level Washington Center
Sat 03:36:36 PM 37.7261 -79.2914 279° West 311 358 16,100 -393 Climbing Washington Center
Sat 03:37:37 PM 37.7378 -79.3892 279° West 311 358 15,200 -1,169 Descending Washington Center
Sat 03:38:34 PM 37.7511 -79.4947 279° West 311 358 13,800 -1,424 Descending Washington Center
Sat 03:39:35 PM 37.7644 -79.5978 279° West 311 358 12,400 -1,328 Descending Washington Center
Sat 03:40:36 PM 37.7772 -79.7089 278° West 311 358 11,100 -1,475 Descending Washington Center
Sat 03:41:37 PM 37.7883 -79.8119 278° West 306 352 9,400 -1,866 Descending Washington Center
Sat 03:42:35 PM 37.8014 -79.9128 279° West 301 346 7,400 -1,664 Descending Washington Center
Sat 03:43:36 PM 37.8111 -79.9919 279° West 279 321 6,100 -639 Descending Washington Center
Sat 03:44:37 PM 37.8017 -80.0783 262° West 261 300 6,100  Level Washington Center
Sat 03:45:37 PM 37.7692 -80.1603 243° Southwest 256 295 6,100 -51 Level Washington Center
Sat 03:46:35 PM 37.7325 -80.2475 242° Southwest 264 304 6,000 -50 Descending Washington Center
Sat 03:47:36 PM 37.7000 -80.3322 244° Southwest 264 304 6,000  Level Washington Center
Sat 03:48:37 PM 37.6778 -80.4172 252° West 264 304 6,000 -303 Level Washington Center
Sat 03:49:35 PM 37.6722 -80.5008 265° West 259 298 5,400 -454 Descending Washington Center
Sat 03:50:36 PM 37.7192 -80.5250 338° Northwest 185 213 5,100 -541 Descending Washington Center
Sat 03:51:37 PM 37.7667 -80.4914 29° Northeast 138 159 4,300 -857 Descending Washington Center
Sat 03:52:35 PM 37.8058 -80.4517 39° Northeast 145 167 3,400 -508 Descending Washington Center
Sat 03:53:35 PM 37.8481 -80.4386 14° North 145 167 3,300 -100 Descending Washington Center

Login

Don't have an account? Register now (free) for customized features, flight alerts, and more!